Time;durP1;ratioP1;P1;durP2;ratioP2;P2;SDS_P1;SDS_P2;PMS_P1;PMS_P2;Temp;Humidity;BMP_temperature;BMP_pressure;BME280_temperature;BME280_humidity;BME280_pressure;Samples;Min_cycle;Max_cycle;Signal;HPM_P1;HPM_P2
2021/12/22 00:01:01;;;;;;;;;;;-2.80;31.10;;;;;;5077556;28;20014;-67
2021/12/22 00:03:29;;;;;;;;;;;-2.80;31.00;;;;;;5068794;28;19932;-66
2021/12/22 00:05:57;;;;;;;;;;;-2.80;30.70;;;;;;5076283;28;19935;-67
2021/12/22 00:08:26;;;;;;;;;;;-2.80;30.40;;;;;;5079460;28;20008;-67
2021/12/22 00:10:54;;;;;;;;;;;-2.80;30.30;;;;;;5072954;28;19933;-67
2021/12/22 00:13:25;;;;;;;;;;;-2.70;30.50;;;;;;5068105;28;19971;-67
2021/12/22 00:15:53;;;;;;;;;;;-2.80;30.00;;;;;;5071774;28;20022;-66
2021/12/22 00:18:21;;;;;;;;;;;-2.80;30.00;;;;;;5075453;28;19934;-67
2021/12/22 00:20:49;;;;;;;;;;;-2.90;29.70;;;;;;5055449;28;19995;-67
2021/12/22 00:23:17;;;;;;;;;;;-2.90;29.70;;;;;;5070656;28;20034;-66
2021/12/22 00:25:47;;;;;;;;;;;-2.90;29.30;;;;;;5075885;28;19963;-64
2021/12/22 00:28:15;;;;;;;;;;;-2.90;29.40;;;;;;5071426;28;19958;-67
2021/12/22 00:30:45;;;;;;;;;;;-3.00;29.10;;;;;;5068464;28;20042;-67
2021/12/22 00:33:13;;;;;;;;;;;-3.00;29.20;;;;;;5066533;28;19960;-66
2021/12/22 00:35:44;;;;;;;;;;;-3.10;29.20;;;;;;5070837;28;20007;-67
2021/12/22 00:38:13;;;;;;;;;;;-3.10;29.50;;;;;;5058512;28;19932;-68
2021/12/22 00:40:42;;;;;;;;;;;-3.10;29.70;;;;;;5072991;28;19932;-66
2021/12/22 00:43:10;;;;;;;;;;;-3.00;30.50;;;;;;5066284;28;19928;-66
2021/12/22 00:45:38;;;;;;;;;;;-3.10;29.30;;;;;;5076640;28;20728;-66
2021/12/22 00:48:10;;;;;;;;;;;-3.10;29.20;;;;;;5073745;28;20216;-66
2021/12/22 00:50:38;;;;;;;;;;;-3.00;29.30;;;;;;5070668;28;19934;-67
2021/12/22 00:53:06;;;;;;;;;;;-3.00;29.30;;;;;;5063441;28;19952;-67
2021/12/22 00:55:34;;;;;;;;;;;-3.00;29.30;;;;;;5074528;28;20027;-67
2021/12/22 00:58:03;;;;;;;;;;;-3.00;29.50;;;;;;5079162;28;19934;-66
2021/12/22 01:00:31;;;;;;;;;;;-3.00;29.80;;;;;;5076506;28;19928;-66
2021/12/22 01:03:00;;;;;;;;;;;-3.00;29.90;;;;;;5070209;28;19933;-66
2021/12/22 01:05:30;;;;;;;;;;;-3.00;29.60;;;;;;5076339;28;19945;-66
2021/12/22 01:07:58;;;;;;;;;;;-3.00;29.90;;;;;;5076766;28;19928;-67
2021/12/22 01:10:27;;;;;;;;;;;-3.10;29.70;;;;;;5076313;28;19932;-67
2021/12/22 01:12:57;;;;;;;;;;;-3.10;29.90;;;;;;5067909;28;20673;-66
2021/12/22 01:15:26;;;;;;;;;;;-3.10;30.00;;;;;;5075360;28;19930;-67
2021/12/22 01:18:00;;;;;;;;;;;-3.10;30.00;;;;;;5078032;28;20023;-67
2021/12/22 01:20:34;;;;;;;;;;;-3.10;29.90;;;;;;5071743;28;20032;-66
2021/12/22 01:23:03;;;;;;;;;;;-3.10;29.80;;;;;;5065513;28;20071;-66
2021/12/22 01:25:32;;;;;;;;;;;-3.00;29.70;;;;;;5063966;28;19928;-66
2021/12/22 01:28:00;;;;;;;;;;;-3.00;29.00;;;;;;5074823;28;20391;-66
2021/12/22 01:30:29;;;;;;;;;;;-2.90;28.30;;;;;;5075398;28;19924;-66
2021/12/22 01:32:58;;;;;;;;;;;-3.00;28.00;;;;;;5066393;28;19932;-66
2021/12/22 01:35:28;;;;;;;;;;;-3.00;28.00;;;;;;5073383;28;19951;-66
2021/12/22 01:37:57;;;;;;;;;;;-3.00;28.00;;;;;;5077492;28;19935;-67
2021/12/22 01:40:26;;;;;;;;;;;-2.90;28.00;;;;;;5073219;28;20043;-67
2021/12/22 01:42:56;;;;;;;;;;;-3.00;27.90;;;;;;5066677;28;19932;-67
2021/12/22 01:45:30;;;;;;;;;;;-3.10;27.60;;;;;;5077342;28;20500;-66
2021/12/22 01:50:45;;;;;;;;;;;-3.10;27.90;;;;;;5076007;28;20387;-66
2021/12/22 01:53:28;;;;;;;;;;;-3.20;28.50;;;;;;5071912;28;20020;-67
2021/12/22 01:56:05;;;;;;;;;;;-3.20;29.10;;;;;;5077952;28;19932;-66
2021/12/22 01:58:35;;;;;;;;;;;-3.30;29.00;;;;;;5057190;28;20352;-66
2021/12/22 02:01:03;;;;;;;;;;;-3.40;29.00;;;;;;5062121;28;19947;-66
2021/12/22 02:03:31;;;;;;;;;;;-3.40;29.20;;;;;;5051922;28;19924;-66
2021/12/22 02:05:59;;;;;;;;;;;-3.40;29.70;;;;;;5057417;28;19987;-65
2021/12/22 02:08:27;;;;;;;;;;;-3.50;29.80;;;;;;5061427;28;20348;-66
2021/12/22 02:10:55;;;;;;;;;;;-3.50;29.90;;;;;;5057185;28;19932;-66
2021/12/22 02:13:30;;;;;;;;;;;-3.50;29.90;;;;;;5048969;28;20125;-66
2021/12/22 02:16:05;;;;;;;;;;;-3.60;30.00;;;;;;5059289;28;19935;-66
2021/12/22 02:18:33;;;;;;;;;;;-3.50;30.70;;;;;;5054443;28;19928;-66
2021/12/22 02:21:03;;;;;;;;;;;-3.60;30.50;;;;;;5057516;28;20035;-66
2021/12/22 02:23:31;;;;;;;;;;;-3.60;30.70;;;;;;5054538;28;20471;-66
2021/12/22 02:26:06;;;;;;;;;;;-3.60;30.80;;;;;;5041792;28;20772;-66
2021/12/22 02:28:36;;;;;;;;;;;-3.60;30.90;;;;;;5058691;28;20022;-66
2021/12/22 02:31:06;;;;;;;;;;;-3.60;30.90;;;;;;5056466;28;19932;-67
2021/12/22 02:33:36;;;;;;;;;;;-3.60;30.90;;;;;;5052490;28;20501;-66
2021/12/22 02:36:20;;;;;;;;;;;-3.60;30.90;;;;;;5055926;28;19967;-66
2021/12/22 02:38:49;;;;;;;;;;;-3.60;30.90;;;;;;5057638;28;19928;-66
2021/12/22 02:41:18;;;;;;;;;;;-3.70;30.80;;;;;;5053981;28;19929;-65
2021/12/22 02:43:48;;;;;;;;;;;-3.70;30.90;;;;;;5051745;28;19932;-66
2021/12/22 02:46:17;;;;;;;;;;;-3.70;31.20;;;;;;5040603;28;20390;-66
2021/12/22 02:48:46;;;;;;;;;;;-3.70;30.90;;;;;;5060484;28;19928;-66
2021/12/22 02:51:16;;;;;;;;;;;-3.70;31.50;;;;;;5053089;28;20395;-66
2021/12/22 02:53:49;;;;;;;;;;;-3.70;31.50;;;;;;5019372;28;20302;-66
2021/12/22 02:56:30;;;;;;;;;;;-3.70;32.00;;;;;;5057139;28;19928;-66
2021/12/22 02:59:04;;;;;;;;;;;-3.60;31.80;;;;;;5057851;28;20242;-66
2021/12/22 03:02:04;;;;;;;;;;;-3.60;32.10;;;;;;5057072;28;19928;-66
2021/12/22 03:04:33;;;;;;;;;;;-3.60;31.80;;;;;;5054486;28;19928;-66
2021/12/22 03:07:08;;;;;;;;;;;-3.70;31.50;;;;;;5056115;28;19932;-66
2021/12/22 03:09:38;;;;;;;;;;;-3.70;31.70;;;;;;5058571;28;20033;-66
2021/12/22 03:12:07;;;;;;;;;;;-3.70;31.70;;;;;;5054802;28;19929;-66
2021/12/22 03:14:35;;;;;;;;;;;-3.60;32.40;;;;;;5054978;28;19929;-66
2021/12/22 03:17:03;;;;;;;;;;;-3.70;31.90;;;;;;5058986;28;19935;-66
2021/12/22 03:19:34;;;;;;;;;;;-3.70;31.70;;;;;;5060411;28;19932;-66
2021/12/22 03:22:07;;;;;;;;;;;-3.70;31.80;;;;;;5053755;28;19928;-66
2021/12/22 03:24:36;;;;;;;;;;;-3.70;32.00;;;;;;5055084;28;20023;-66
2021/12/22 03:27:07;;;;;;;;;;;-3.60;32.10;;;;;;5056074;28;19932;-66
2021/12/22 03:29:36;;;;;;;;;;;-3.60;32.10;;;;;;5051562;28;19971;-66
2021/12/22 03:32:04;;;;;;;;;;;-3.50;31.70;;;;;;5053268;28;19928;-66
2021/12/22 03:34:32;;;;;;;;;;;-3.60;31.00;;;;;;5054616;28;19937;-66
2021/12/22 03:37:00;;;;;;;;;;;-3.70;30.80;;;;;;5060325;28;19935;-66
2021/12/22 03:39:29;;;;;;;;;;;-3.70;30.80;;;;;;5053452;28;20007;-66
2021/12/22 03:41:57;;;;;;;;;;;-3.70;30.90;;;;;;5052790;28;20426;-66
2021/12/22 03:44:25;;;;;;;;;;;-3.70;31.50;;;;;;5054470;28;19928;-66
2021/12/22 03:46:53;;;;;;;;;;;-3.70;30.70;;;;;;5053548;28;19928;-66
2021/12/22 03:49:21;;;;;;;;;;;-3.70;30.40;;;;;;5053041;28;19935;-66
2021/12/22 03:51:48;;;;;;;;;;;-3.70;30.30;;;;;;5055133;28;19933;-66
2021/12/22 03:54:16;;;;;;;;;;;-3.80;29.90;;;;;;5057066;28;19978;-66
2021/12/22 03:56:46;;;;;;;;;;;-3.80;30.00;;;;;;5054868;28;19928;-66
2021/12/22 03:59:14;;;;;;;;;;;-4.00;29.60;;;;;;5053373;28;19940;-66
2021/12/22 04:01:42;;;;;;;;;;;-4.10;29.50;;;;;;5053711;28;20402;-66
2021/12/22 04:04:13;;;;;;;;;;;-4.20;29.50;;;;;;5053691;28;20035;-66
2021/12/22 04:06:43;;;;;;;;;;;-4.20;30.40;;;;;;5054325;28;19972;-66
2021/12/22 04:09:11;;;;;;;;;;;-4.20;30.10;;;;;;5051026;28;20636;-65
2021/12/22 04:11:39;;;;;;;;;;;-4.20;30.40;;;;;;5036514;28;19929;-66
2021/12/22 04:14:08;;;;;;;;;;;-4.20;30.40;;;;;;5050365;28;19971;-66
2021/12/22 04:16:36;;;;;;;;;;;-4.20;30.40;;;;;;5057691;28;19932;-66
2021/12/22 04:19:04;;;;;;;;;;;-4.20;30.40;;;;;;5055459;28;19929;-66
2021/12/22 04:21:33;;;;;;;;;;;-4.20;30.40;;;;;;5053020;28;19924;-65
2021/12/22 04:24:02;;;;;;;;;;;-4.20;30.50;;;;;;5051157;28;19928;-65
2021/12/22 04:26:32;;;;;;;;;;;-4.10;30.90;;;;;;5054311;28;20638;-65
2021/12/22 04:29:00;;;;;;;;;;;-4.10;30.50;;;;;;5057612;28;20015;-65
2021/12/22 04:31:30;;;;;;;;;;;-4.10;30.60;;;;;;5056121;28;19934;-65
2021/12/22 04:33:58;;;;;;;;;;;-4.10;31.10;;;;;;5029762;28;20035;-66
2021/12/22 04:36:28;;;;;;;;;;;-4.10;30.30;;;;;;5036792;28;20402;-66
2021/12/22 04:38:57;;;;;;;;;;;-4.10;30.10;;;;;;5055151;28;19928;-64
2021/12/22 04:41:24;;;;;;;;;;;-4.10;30.40;;;;;;5043005;28;20055;-65
2021/12/22 04:43:52;;;;;;;;;;;-4.00;29.90;;;;;;5031186;28;19999;-65
2021/12/22 04:46:21;;;;;;;;;;;-4.00;29.40;;;;;;5056894;28;20023;-65
2021/12/22 04:48:51;;;;;;;;;;;-4.10;29.10;;;;;;5057428;28;19929;-65
2021/12/22 04:51:25;;;;;;;;;;;-3.90;29.30;;;;;;5052162;28;19936;-65
2021/12/22 04:54:01;;;;;;;;;;;-3.90;28.80;;;;;;5049450;28;20023;-65
2021/12/22 04:56:33;;;;;;;;;;;-3.90;28.30;;;;;;5053027;28;19936;-64
2021/12/22 04:59:02;;;;;;;;;;;-3.90;28.00;;;;;;5054753;28;19978;-65
2021/12/22 05:01:30;;;;;;;;;;;-3.90;27.60;;;;;;5054199;28;19932;-65
2021/12/22 05:03:59;;;;;;;;;;;-3.90;27.40;;;;;;5048423;28;20517;-65
2021/12/22 05:06:27;;;;;;;;;;;-4.00;27.30;;;;;;5053419;28;19967;-64
2021/12/22 05:08:55;;;;;;;;;;;-4.10;27.50;;;;;;5039161;28;19932;-65
2021/12/22 05:11:23;;;;;;;;;;;-4.00;27.90;;;;;;5038432;28;20455;-65
2021/12/22 05:13:51;;;;;;;;;;;-4.00;27.90;;;;;;5035216;28;19979;-64
2021/12/22 05:16:19;;;;;;;;;;;-4.00;27.90;;;;;;5038787;28;20028;-65
2021/12/22 05:18:51;;;;;;;;;;;-4.00;28.10;;;;;;5040505;28;20020;-65
2021/12/22 05:21:22;;;;;;;;;;;-4.10;27.90;;;;;;5038169;28;20012;-66
2021/12/22 05:23:50;;;;;;;;;;;-4.10;28.00;;;;;;5034398;28;20059;-65
2021/12/22 05:26:19;;;;;;;;;;;-4.10;28.30;;;;;;5045301;28;20043;-64
2021/12/22 05:28:48;;;;;;;;;;;-4.10;27.50;;;;;;5051182;28;20403;-64
2021/12/22 05:31:16;;;;;;;;;;;-4.20;27.70;;;;;;5034564;28;19925;-65
2021/12/22 05:33:44;;;;;;;;;;;-4.20;28.20;;;;;;5038481;28;19933;-65
2021/12/22 05:36:12;;;;;;;;;;;-4.20;28.10;;;;;;5039419;28;19932;-65
2021/12/22 05:38:41;;;;;;;;;;;-4.10;28.50;;;;;;5036287;28;19933;-65
2021/12/22 05:41:09;;;;;;;;;;;-4.10;28.00;;;;;;5040432;28;19959;-64
2021/12/22 05:43:37;;;;;;;;;;;-4.10;27.80;;;;;;5034352;28;19932;-65
2021/12/22 05:46:05;;;;;;;;;;;-4.10;27.40;;;;;;5037994;28;20411;-65
2021/12/22 05:48:33;;;;;;;;;;;-4.20;27.20;;;;;;5027451;28;19932;-64
2021/12/22 05:51:02;;;;;;;;;;;-4.20;27.40;;;;;;5023343;28;19964;-64
2021/12/22 05:53:30;;;;;;;;;;;-4.20;27.40;;;;;;5034484;28;19983;-65
2021/12/22 05:55:59;;;;;;;;;;;-4.20;27.30;;;;;;5043001;28;19928;-65
2021/12/22 05:58:28;;;;;;;;;;;-4.20;27.60;;;;;;5039694;28;19937;-65
2021/12/22 06:00:56;;;;;;;;;;;-4.20;27.40;;;;;;5034817;28;19987;-64
2021/12/22 06:03:24;;;;;;;;;;;-4.10;27.40;;;;;;5029954;28;20019;-65
2021/12/22 06:05:52;;;;;;;;;;;-4.20;27.20;;;;;;5032051;28;19929;-65
2021/12/22 06:08:20;;;;;;;;;;;-4.20;27.20;;;;;;5034294;28;19929;-65
2021/12/22 06:10:48;;;;;;;;;;;-4.20;27.20;;;;;;5035860;28;19965;-64
2021/12/22 06:13:17;;;;;;;;;;;-4.20;27.20;;;;;;5032083;28;19929;-65
2021/12/22 06:15:45;;;;;;;;;;;-4.20;27.20;;;;;;5036320;28;20381;-64
2021/12/22 06:18:13;;;;;;;;;;;-4.20;27.20;;;;;;5022151;28;19932;-65
2021/12/22 06:20:41;;;;;;;;;;;-4.20;27.20;;;;;;5034929;28;19929;-66
2021/12/22 06:23:09;;;;;;;;;;;-4.20;27.20;;;;;;5034524;28;20326;-65
2021/12/22 06:25:37;;;;;;;;;;;-4.20;27.20;;;;;;5042215;28;20403;-65
2021/12/22 06:28:05;;;;;;;;;;;-4.20;27.20;;;;;;5042326;28;19933;-65
2021/12/22 06:30:35;;;;;;;;;;;-4.20;27.20;;;;;;5039081;28;20015;-65
2021/12/22 06:33:04;;;;;;;;;;;-4.20;27.20;;;;;;5036776;28;20074;-65
2021/12/22 06:35:31;;;;;;;;;;;-4.20;27.20;;;;;;5043375;28;20684;-65
2021/12/22 06:38:00;;;;;;;;;;;-4.10;27.50;;;;;;5022986;28;19967;-65
2021/12/22 06:40:27;;;;;;;;;;;-4.10;27.60;;;;;;5056059;28;20493;-65
2021/12/22 06:42:57;;;;;;;;;;;-4.00;27.60;;;;;;5035044;28;20467;-65
2021/12/22 06:45:25;;;;;;;;;;;-4.00;27.30;;;;;;5040266;28;20398;-65
2021/12/22 06:47:54;;;;;;;;;;;-4.10;27.20;;;;;;5042460;28;19925;-63
2021/12/22 06:50:22;;;;;;;;;;;-4.10;27.30;;;;;;5045476;28;19929;-65
2021/12/22 06:52:50;;;;;;;;;;;-4.00;27.30;;;;;;5044522;28;20028;-65
2021/12/22 06:55:18;;;;;;;;;;;-4.00;27.30;;;;;;5036777;28;20015;-65
2021/12/22 06:57:47;;;;;;;;;;;-4.00;26.80;;;;;;5057347;28;20016;-64
2021/12/22 07:00:15;;;;;;;;;;;-4.00;27.10;;;;;;5036645;28;20016;-64
2021/12/22 07:02:44;;;;;;;;;;;-4.00;26.70;;;;;;5037457;28;19933;-64
2021/12/22 07:05:13;;;;;;;;;;;-4.00;26.60;;;;;;5038617;28;19935;-65
2021/12/22 07:07:41;;;;;;;;;;;-4.10;26.10;;;;;;5041145;28;20384;-65
2021/12/22 07:10:11;;;;;;;;;;;-4.10;26.10;;;;;;5038622;28;20042;-65
2021/12/22 07:12:40;;;;;;;;;;;-4.00;26.10;;;;;;5038733;28;20027;-64
2021/12/22 07:15:10;;;;;;;;;;;-4.10;25.40;;;;;;5041801;28;20031;-65
2021/12/22 07:17:38;;;;;;;;;;;-4.10;25.60;;;;;;5039988;28;19980;-65
2021/12/22 07:20:06;;;;;;;;;;;-4.10;25.00;;;;;;5022828;28;20040;-65
2021/12/22 07:22:36;;;;;;;;;;;-4.10;24.60;;;;;;5035284;28;19928;-65
2021/12/22 07:25:04;;;;;;;;;;;-4.10;24.20;;;;;;5036244;28;19930;-65
2021/12/22 07:27:32;;;;;;;;;;;-4.10;24.90;;;;;;5056547;28;19928;-66
2021/12/22 07:30:00;;;;;;;;;;;-4.10;24.80;;;;;;5045882;28;19976;-66
2021/12/22 07:32:30;;;;;;;;;;;-4.10;24.10;;;;;;5034144;28;19933;-65
2021/12/22 07:35:03;;;;;;;;;;;-4.20;23.90;;;;;;5020965;28;19933;-65
2021/12/22 07:37:32;;;;;;;;;;;-4.10;24.60;;;;;;5038923;28;19928;-65
2021/12/22 07:40:02;;;;;;;;;;;-4.10;24.40;;;;;;5036245;28;20199;-65
2021/12/22 07:42:30;;;;;;;;;;;-4.00;24.40;;;;;;5033427;28;19962;-65
2021/12/22 07:44:58;;;;;;;;;;;-4.10;24.00;;;;;;5037010;28;20035;-64
2021/12/22 07:47:26;;;;;;;;;;;-4.00;24.10;;;;;;5040289;28;19944;-65
2021/12/22 07:49:54;;;;;;;;;;;-4.00;24.00;;;;;;5037890;28;19968;-64
2021/12/22 07:52:23;;;;;;;;;;;-3.90;24.00;;;;;;5015808;28;19932;-65
2021/12/22 07:54:53;;;;;;;;;;;-3.90;23.80;;;;;;5034074;28;19983;-65
2021/12/22 07:57:22;;;;;;;;;;;-3.90;22.90;;;;;;5056255;28;20271;-66
2021/12/22 07:59:50;;;;;;;;;;;-3.80;23.00;;;;;;5042953;28;19929;-65
2021/12/22 08:02:18;;;;;;;;;;;-3.80;22.40;;;;;;5022968;28;20577;-65
2021/12/22 08:04:47;;;;;;;;;;;-3.90;21.90;;;;;;5057107;28;19928;-65
2021/12/22 08:07:14;;;;;;;;;;;-3.80;22.30;;;;;;5055612;28;19943;-65
2021/12/22 08:09:42;;;;;;;;;;;-3.80;22.20;;;;;;5052149;28;20028;-64
2021/12/22 08:12:10;;;;;;;;;;;-3.70;21.90;;;;;;5050066;28;20372;-65
2021/12/22 08:14:40;;;;;;;;;;;-3.70;21.70;;;;;;5042089;28;19928;-66
2021/12/22 08:17:08;;;;;;;;;;;-3.60;21.60;;;;;;5033976;28;20011;-65
2021/12/22 08:19:37;;;;;;;;;;;-3.50;21.80;;;;;;5035946;28;19964;-65
2021/12/22 08:22:05;;;;;;;;;;;-3.40;21.50;;;;;;5039100;28;19960;-64
2021/12/22 08:24:33;;;;;;;;;;;-3.30;21.20;;;;;;5047910;28;19929;-65
2021/12/22 08:27:01;;;;;;;;;;;-3.30;20.70;;;;;;5054245;28;20022;-65
2021/12/22 08:29:29;;;;;;;;;;;-3.20;20.60;;;;;;5051334;28;19935;-66
2021/12/22 08:32:00;;;;;;;;;;;-3.20;20.80;;;;;;5049128;28;20613;-66
2021/12/22 08:34:35;;;;;;;;;;;-3.10;20.20;;;;;;5055606;28;19928;-65
2021/12/22 08:39:53;;;;;;;;;;;-3.10;20.10;;;;;;5048368;28;19928;-66
2021/12/22 08:42:21;;;;;;;;;;;-3.10;20.50;;;;;;5032754;28;19933;-65
2021/12/22 08:44:50;;;;;;;;;;;-3.00;19.70;;;;;;5042164;28;19943;-66
2021/12/22 08:47:19;;;;;;;;;;;-3.00;19.70;;;;;;5047828;28;20024;-66
2021/12/22 08:49:48;;;;;;;;;;;-2.80;19.60;;;;;;5036356;28;19936;-65
2021/12/22 08:52:15;;;;;;;;;;;-2.70;18.10;;;;;;5035357;28;20336;-65
2021/12/22 08:54:44;;;;;;;;;;;-2.60;17.70;;;;;;5035884;28;19939;-66
2021/12/22 08:57:12;;;;;;;;;;;-2.60;17.20;;;;;;5037461;28;19935;-66
2021/12/22 08:59:40;;;;;;;;;;;-2.50;16.70;;;;;;5035409;28;19933;-66
2021/12/22 09:02:08;;;;;;;;;;;-2.50;16.80;;;;;;5031585;28;19929;-65
2021/12/22 09:04:37;;;;;;;;;;;-2.40;14.90;;;;;;5033886;28;20403;-67
2021/12/22 09:07:11;;;;;;;;;;;-2.40;14.80;;;;;;5029905;28;19967;-66
2021/12/22 09:09:39;;;;;;;;;;;-2.40;14.40;;;;;;5031127;28;19937;-66
2021/12/22 09:12:07;;;;;;;;;;;-2.50;13.00;;;;;;5028442;28;20622;-67
2021/12/22 09:14:35;;;;;;;;;;;-2.40;13.20;;;;;;5035318;28;19932;-66
2021/12/22 09:17:03;;;;;;;;;;;-2.40;13.40;;;;;;5032107;28;20404;-66
2021/12/22 09:19:31;;;;;;;;;;;-2.30;13.50;;;;;;5029684;28;19940;-66
2021/12/22 09:22:00;;;;;;;;;;;-2.30;13.20;;;;;;5032161;28;20029;-66
2021/12/22 09:24:28;;;;;;;;;;;-2.30;12.30;;;;;;5048907;28;20055;-66
2021/12/22 09:26:56;;;;;;;;;;;-2.20;13.00;;;;;;5044587;28;19935;-66
2021/12/22 09:29:26;;;;;;;;;;;-2.20;12.20;;;;;;5036650;28;20012;-66
2021/12/22 09:31:54;;;;;;;;;;;-2.20;11.50;;;;;;5018780;28;20496;-64
2021/12/22 09:34:22;;;;;;;;;;;-2.20;11.50;;;;;;5054136;28;19928;-66
2021/12/22 09:36:51;;;;;;;;;;;-2.00;11.70;;;;;;5035722;28;19928;-66
2021/12/22 09:39:20;;;;;;;;;;;-2.00;11.70;;;;;;5037527;28;19929;-64
2021/12/22 09:41:49;;;;;;;;;;;-1.90;11.10;;;;;;5036572;28;19933;-65
2021/12/22 09:44:17;;;;;;;;;;;-1.80;10.10;;;;;;5039706;28;19928;-66
2021/12/22 09:46:49;;;;;;;;;;;-1.80;10.80;;;;;;5052204;28;19928;-66
2021/12/22 09:49:35;;;;;;;;;;;-1.70;9.70;;;;;;5051477;28;19951;-66
2021/12/22 09:52:21;;;;;;;;;;;-1.70;8.60;;;;;;5051505;28;19974;-66
2021/12/22 09:54:56;;;;;;;;;;;-1.60;8.40;;;;;;5047404;28;19940;-66
2021/12/22 09:57:24;;;;;;;;;;;-1.50;8.10;;;;;;5038240;28;19925;-66
2021/12/22 09:59:53;;;;;;;;;;;-1.40;7.90;;;;;;5032409;28;19929;-66
2021/12/22 10:02:27;;;;;;;;;;;-1.40;7.80;;;;;;5030250;28;20019;-67
2021/12/22 10:04:55;;;;;;;;;;;-1.40;7.40;;;;;;5032387;28;20450;-66
2021/12/22 10:07:26;;;;;;;;;;;-1.30;7.20;;;;;;5034067;28;19956;-66
2021/12/22 10:10:02;;;;;;;;;;;-1.00;6.00;;;;;;5033927;28;19964;-66
2021/12/22 10:12:30;;;;;;;;;;;-1.20;5.10;;;;;;5033324;28;20403;-64
2021/12/22 10:15:00;;;;;;;;;;;-1.10;5.10;;;;;;5033296;28;19935;-65
2021/12/22 10:17:36;;;;;;;;;;;-1.20;5.00;;;;;;5035351;28;20668;-66
2021/12/22 10:20:10;;;;;;;;;;;-1.10;6.00;;;;;;5037053;28;20024;-66
2021/12/22 10:22:40;;;;;;;;;;;-1.00;5.10;;;;;;5031510;28;19925;-66
2021/12/22 10:25:13;;;;;;;;;;;-0.90;5.20;;;;;;5036355;28;19967;-66
2021/12/22 10:27:43;;;;;;;;;;;-0.90;4.80;;;;;;5053836;28;19929;-66
2021/12/22 10:30:24;;;;;;;;;;;-0.80;4.90;;;;;;5054883;28;19933;-66
2021/12/22 10:33:04;;;;;;;;;;;-0.90;4.40;;;;;;5046629;28;19935;-66
2021/12/22 10:35:33;;;;;;;;;;;-0.80;4.10;;;;;;5037038;28;19928;-65
2021/12/22 10:38:01;;;;;;;;;;;-0.80;4.10;;;;;;5036626;28;20418;-66
2021/12/22 10:40:33;;;;;;;;;;;-0.60;4.10;;;;;;5042109;28;19935;-66
2021/12/22 10:43:04;;;;;;;;;;;-0.70;2.70;;;;;;5062243;28;19994;-65
2021/12/22 10:45:34;;;;;;;;;;;-0.70;3.00;;;;;;5042034;28;19932;-66
2021/12/22 10:50:53;;;;;;;;;;;-0.70;2.50;;;;;;5040307;28;20427;-65
2021/12/22 10:53:21;;;;;;;;;;;-0.60;1.80;;;;;;5040592;28;19929;-66
2021/12/22 10:55:56;;;;;;;;;;;-0.50;1.80;;;;;;5040806;28;19986;-66
2021/12/22 10:58:26;;;;;;;;;;;-0.40;1.00;;;;;;5004969;28;20329;-66
2021/12/22 11:01:01;;;;;;;;;;;-0.40;1.00;;;;;;5040723;28;19933;-67
2021/12/22 11:03:39;;;;;;;;;;;-0.40;1.00;;;;;;5041523;28;19975;-66
2021/12/22 11:06:11;;;;;;;;;;;-0.40;1.00;;;;;;5041064;28;19995;-66
2021/12/22 11:08:41;;;;;;;;;;;-0.30;1.00;;;;;;5024642;28;19929;-67
2021/12/22 11:11:15;;;;;;;;;;;-0.30;1.00;;;;;;5043922;28;19987;-67
2021/12/22 11:13:43;;;;;;;;;;;-0.20;1.00;;;;;;5043096;28;19972;-67
2021/12/22 11:16:11;;;;;;;;;;;-0.30;1.00;;;;;;5040626;28;20450;-67
2021/12/22 11:18:41;;;;;;;;;;;-0.30;1.00;;;;;;5054720;28;19932;-66
2021/12/22 11:21:13;;;;;;;;;;;-0.20;1.00;;;;;;5044205;28;19925;-66
2021/12/22 11:23:42;;;;;;;;;;;-0.10;1.00;;;;;;5040268;28;20008;-66
2021/12/22 11:26:12;;;;;;;;;;;-0.10;1.00;;;;;;5038815;28;19935;-66
2021/12/22 11:28:41;;;;;;;;;;;-0.10;1.00;;;;;;5041097;28;20456;-65
2021/12/22 11:31:11;;;;;;;;;;;-0.10;1.00;;;;;;5061840;28;19928;-67
2021/12/22 11:33:45;;;;;;;;;;;-0.20;1.00;;;;;;5063392;28;19986;-66
2021/12/22 11:36:14;;;;;;;;;;;0.00;1.00;;;;;;5041522;28;19928;-66
2021/12/22 11:38:42;;;;;;;;;;;0.10;1.00;;;;;;5042891;28;19935;-66
2021/12/22 11:41:13;;;;;;;;;;;0.20;1.00;;;;;;5038128;28;19929;-67
2021/12/22 11:43:43;;;;;;;;;;;0.20;1.00;;;;;;5037521;28;20071;-67
2021/12/22 11:46:11;;;;;;;;;;;0.20;1.00;;;;;;5041678;28;19928;-66
2021/12/22 11:48:40;;;;;;;;;;;0.30;1.00;;;;;;5059603;28;19932;-67
2021/12/22 11:51:22;;;;;;;;;;;0.30;1.00;;;;;;5042627;28;19951;-67
2021/12/22 11:53:50;;;;;;;;;;;0.20;1.00;;;;;;5035855;28;19928;-67
2021/12/22 11:56:38;;;;;;;;;;;0.30;1.00;;;;;;5027327;28;19979;-67
2021/12/22 11:59:24;;;;;;;;;;;0.30;1.00;;;;;;5041808;28;19924;-67
2021/12/22 12:02:11;;;;;;;;;;;0.40;1.00;;;;;;5042665;28;20179;-67
2021/12/22 12:04:40;;;;;;;;;;;0.40;1.00;;;;;;5047595;28;20295;-68
2021/12/22 12:07:08;;;;;;;;;;;0.40;1.00;;;;;;5055011;28;19932;-68
2021/12/22 12:09:43;;;;;;;;;;;0.40;1.00;;;;;;5058943;28;20399;-68
2021/12/22 12:12:34;;;;;;;;;;;0.30;1.00;;;;;;5059080;28;19954;-68
2021/12/22 12:15:11;;;;;;;;;;;0.40;1.00;;;;;;5053442;28;19928;-68
2021/12/22 12:23:22;;;;;;;;;;;0.40;1.00;;;;;;5044205;28;19928;-68
2021/12/22 12:25:54;;;;;;;;;;;0.50;1.00;;;;;;5058234;28;19928;-68
2021/12/22 12:28:25;;;;;;;;;;;0.50;1.00;;;;;;5059970;28;19928;-68
2021/12/22 12:30:55;;;;;;;;;;;0.40;1.00;;;;;;5038057;28;20430;-68
2021/12/22 12:33:25;;;;;;;;;;;0.40;1.00;;;;;;5042122;28;19935;-68
2021/12/22 12:36:01;;;;;;;;;;;0.50;1.00;;;;;;5040330;28;20410;-68
2021/12/22 12:38:30;;;;;;;;;;;0.40;1.00;;;;;;5038017;28;19935;-68
2021/12/22 12:41:13;;;;;;;;;;;0.50;1.00;;;;;;5038588;28;20396;-68
2021/12/22 12:43:49;;;;;;;;;;;0.60;1.00;;;;;;5038888;28;19933;-68
2021/12/22 12:46:37;;;;;;;;;;;0.60;1.00;;;;;;5042925;28;20031;-68
2021/12/22 12:49:24;;;;;;;;;;;0.60;1.00;;;;;;5033481;28;19929;-69
2021/12/22 12:51:59;;;;;;;;;;;0.60;1.00;;;;;;5035610;28;20354;-68
2021/12/22 12:54:28;;;;;;;;;;;0.70;1.00;;;;;;5035415;28;19960;-68
2021/12/22 12:56:57;;;;;;;;;;;0.70;1.00;;;;;;5035280;28;20039;-68
2021/12/22 12:59:44;;;;;;;;;;;0.70;1.00;;;;;;5039885;28;19928;-69
2021/12/22 13:02:19;;;;;;;;;;;0.70;1.00;;;;;;5042260;28;20029;-70
2021/12/22 13:04:47;;;;;;;;;;;0.70;1.00;;;;;;5057179;28;20031;-69
2021/12/22 13:07:16;;;;;;;;;;;0.70;1.00;;;;;;5057374;28;19935;-68
2021/12/22 13:09:45;;;;;;;;;;;0.80;1.00;;;;;;5058808;28;19929;-69
2021/12/22 13:12:17;;;;;;;;;;;0.70;1.00;;;;;;5056873;28;20008;-69
2021/12/22 13:17:36;;;;;;;;;;;0.80;1.00;;;;;;5060151;28;19928;-69
2021/12/22 13:20:05;;;;;;;;;;;0.80;1.00;;;;;;5053557;28;19928;-69
2021/12/22 13:22:33;;;;;;;;;;;0.80;1.00;;;;;;5054469;28;19928;-68
2021/12/22 13:25:09;;;;;;;;;;;0.80;1.00;;;;;;5040706;28;20012;-69
2021/12/22 13:27:37;;;;;;;;;;;0.90;1.00;;;;;;5041630;28;19940;-69
2021/12/22 13:30:06;;;;;;;;;;;0.90;1.00;;;;;;5014652;28;19929;-70
2021/12/22 13:32:36;;;;;;;;;;;0.90;1.00;;;;;;5039203;28;19929;-70
2021/12/22 13:35:04;;;;;;;;;;;0.80;1.00;;;;;;5020326;28;19925;-70
2021/12/22 13:37:48;;;;;;;;;;;0.90;1.00;;;;;;5035305;28;19932;-70
2021/12/22 13:40:31;;;;;;;;;;;0.90;1.00;;;;;;5032863;28;19932;-69
2021/12/22 13:42:59;;;;;;;;;;;0.90;1.00;;;;;;5040353;28;19929;-69
2021/12/22 13:45:27;;;;;;;;;;;0.80;1.00;;;;;;5054571;28;19929;-68
2021/12/22 13:47:56;;;;;;;;;;;0.90;1.00;;;;;;5045236;28;20577;-69
2021/12/22 13:50:24;;;;;;;;;;;0.90;1.00;;;;;;5036170;28;19929;-69
2021/12/22 13:52:52;;;;;;;;;;;0.90;1.00;;;;;;5042366;28;19929;-69
2021/12/22 13:55:21;;;;;;;;;;;0.90;1.00;;;;;;5042318;28;19933;-68
2021/12/22 13:57:48;;;;;;;;;;;0.90;1.00;;;;;;5061369;28;19925;-69
2021/12/22 14:00:18;;;;;;;;;;;0.90;1.00;;;;;;5059511;28;20281;-69
2021/12/22 14:02:47;;;;;;;;;;;0.90;1.00;;;;;;5060120;28;20389;-70
2021/12/22 14:05:19;;;;;;;;;;;0.90;1.00;;;;;;5064286;28;19928;-69
2021/12/22 14:07:47;;;;;;;;;;;0.90;1.00;;;;;;5058762;28;19928;-68
2021/12/22 14:10:15;;;;;;;;;;;0.90;1.00;;;;;;5061144;28;20147;-68
2021/12/22 14:12:45;;;;;;;;;;;0.80;1.00;;;;;;5055921;28;19933;-69
2021/12/22 14:15:13;;;;;;;;;;;0.80;1.00;;;;;;5060690;28;20218;-69
2021/12/22 14:17:44;;;;;;;;;;;0.80;1.00;;;;;;5059632;28;19932;-69
2021/12/22 14:20:13;;;;;;;;;;;0.90;1.00;;;;;;5061177;28;20299;-69
2021/12/22 14:22:45;;;;;;;;;;;0.80;1.00;;;;;;5062022;28;19932;-69
2021/12/22 14:25:17;;;;;;;;;;;0.80;1.00;;;;;;5052977;28;19929;-68
2021/12/22 14:27:50;;;;;;;;;;;0.80;1.00;;;;;;5060130;28;20291;-69
2021/12/22 14:30:22;;;;;;;;;;;0.90;1.00;;;;;;5061658;28;19964;-69
2021/12/22 14:32:53;;;;;;;;;;;0.80;1.00;;;;;;5061741;28;19931;-68
2021/12/22 14:35:22;;;;;;;;;;;0.80;1.00;;;;;;5057174;28;19932;-68
2021/12/22 14:37:57;;;;;;;;;;;0.70;1.00;;;;;;5061009;28;19939;-69
2021/12/22 14:40:26;;;;;;;;;;;0.70;1.00;;;;;;5061965;28;19924;-69
2021/12/22 14:42:58;;;;;;;;;;;0.70;1.00;;;;;;5056976;28;19933;-69
2021/12/22 14:45:28;;;;;;;;;;;0.60;1.00;;;;;;5058174;28;19928;-69
2021/12/22 14:48:13;;;;;;;;;;;0.70;1.00;;;;;;5056894;28;20384;-69
2021/12/22 14:50:54;;;;;;;;;;;0.60;1.00;;;;;;5056466;28;19924;-70
2021/12/22 14:53:28;;;;;;;;;;;0.60;1.00;;;;;;5056338;28;19936;-70
2021/12/22 14:55:57;;;;;;;;;;;0.70;1.00;;;;;;5056972;28;19928;-70
2021/12/22 14:58:26;;;;;;;;;;;0.60;1.00;;;;;;5059753;28;19928;-69